createdAt,value
2022-12-12T00:02:02.235Z,60.70
2022-12-12T00:04:31.395Z,60.70
2022-12-12T00:07:00.682Z,60.40
2022-12-12T00:09:29.868Z,60.20
2022-12-12T00:12:00.373Z,60.50
2022-12-12T00:14:30.248Z,60.60
2022-12-12T00:16:59.453Z,60.70
2022-12-12T00:19:28.425Z,60.90
2022-12-12T00:21:57.230Z,60.90
2022-12-12T00:24:26.111Z,60.90
2022-12-12T00:26:55.176Z,61.00
2022-12-12T00:29:25.686Z,61.10
2022-12-12T00:31:54.479Z,61.00
2022-12-12T00:34:23.346Z,61.00
2022-12-12T00:36:52.512Z,61.00
2022-12-12T00:39:23.003Z,61.20
2022-12-12T00:41:52.091Z,61.30
2022-12-12T00:44:21.026Z,61.30
2022-12-12T00:46:51.338Z,61.10
2022-12-12T00:49:20.494Z,61.00
2022-12-12T00:51:49.784Z,61.00
2022-12-12T00:54:18.849Z,61.00
2022-12-12T00:56:48.937Z,61.20
2022-12-12T00:59:19.589Z,61.20
2022-12-12T01:01:48.809Z,60.90
2022-12-12T01:04:19.266Z,60.50
2022-12-12T01:06:48.414Z,60.30
2022-12-12T01:09:17.445Z,61.00
2022-12-12T01:11:46.547Z,60.10
2022-12-12T01:14:15.337Z,60.10
2022-12-12T01:16:44.497Z,60.00
2022-12-12T01:19:13.762Z,59.90
2022-12-12T01:21:44.049Z,60.00
2022-12-12T01:24:12.906Z,60.00
2022-12-12T01:26:42.679Z,60.10
2022-12-12T01:29:11.567Z,60.10
2022-12-12T01:31:40.502Z,60.10
2022-12-12T01:34:09.836Z,60.20
2022-12-12T01:36:39.034Z,60.20
2022-12-12T01:39:09.426Z,60.20
2022-12-12T01:41:38.877Z,60.30
2022-12-12T01:44:28.600Z,60.40
2022-12-12T01:46:57.759Z,60.40
2022-12-12T01:49:28.292Z,60.40
2022-12-12T01:52:01.634Z,60.40
2022-12-12T01:54:34.945Z,60.40
2022-12-12T01:57:07.872Z,60.50
2022-12-12T01:59:38.739Z,60.50
2022-12-12T02:02:08.288Z,60.50
2022-12-12T02:04:37.823Z,60.50
2022-12-12T02:07:07.268Z,60.80
2022-12-12T02:09:38.537Z,60.80
2022-12-12T02:12:08.274Z,61.00
2022-12-12T02:14:41.238Z,61.10
2022-12-12T02:17:46.175Z,61.10
2022-12-12T02:20:48.217Z,61.10
2022-12-12T02:23:43.278Z,61.00
2022-12-12T02:26:42.823Z,61.00
2022-12-12T02:29:50.602Z,61.00
2022-12-12T02:32:28.137Z,61.10
2022-12-12T02:35:05.562Z,61.10
2022-12-12T02:37:40.926Z,61.10
2022-12-12T02:40:21.427Z,61.20
2022-12-12T02:42:58.525Z,61.40
2022-12-12T02:45:35.212Z,61.40
2022-12-12T02:48:13.944Z,61.40
2022-12-12T02:50:44.845Z,61.40
2022-12-12T02:53:13.940Z,61.50
2022-12-12T02:55:42.843Z,61.40
2022-12-12T02:58:11.919Z,61.40
2022-12-12T03:00:52.916Z,61.50
2022-12-12T03:03:54.093Z,61.40
2022-12-12T03:06:59.190Z,61.30
2022-12-12T03:09:38.894Z,61.10
2022-12-12T03:12:12.727Z,60.90
2022-12-12T03:14:51.630Z,60.80
2022-12-12T03:17:29.238Z,60.70
2022-12-12T03:20:04.079Z,60.80
2022-12-12T03:22:44.797Z,60.80
2022-12-12T03:25:18.817Z,61.00
2022-12-12T03:27:52.276Z,61.00
2022-12-12T03:30:21.771Z,61.10
2022-12-12T03:32:56.174Z,61.30
2022-12-12T03:35:29.635Z,61.40
2022-12-12T03:38:03.455Z,61.70
2022-12-12T03:40:39.402Z,61.80
2022-12-12T03:43:12.293Z,61.90
2022-12-12T03:45:46.960Z,61.80
2022-12-12T03:48:21.443Z,61.80
2022-12-12T03:50:55.319Z,61.80
2022-12-12T03:53:32.898Z,61.80
2022-12-12T03:56:05.804Z,61.80
2022-12-12T03:58:38.308Z,61.70
2022-12-12T04:01:10.246Z,61.70
2022-12-12T04:03:44.946Z,61.80
2022-12-12T04:06:29.709Z,62.00
2022-12-12T04:09:18.620Z,62.00
2022-12-12T04:12:14.620Z,62.00
2022-12-12T04:15:16.178Z,61.90
2022-12-12T04:17:59.182Z,61.70
2022-12-12T04:20:51.977Z,61.70
2022-12-12T04:23:29.853Z,61.60
2022-12-12T04:26:22.834Z,61.60
2022-12-12T04:29:07.923Z,61.70
2022-12-12T04:31:42.545Z,61.50
2022-12-12T04:34:16.954Z,61.30
2022-12-12T04:36:49.120Z,61.10
2022-12-12T04:39:21.477Z,61.10
2022-12-12T04:41:52.730Z,61.10
2022-12-12T04:44:24.181Z,61.00
2022-12-12T04:46:57.087Z,61.00
2022-12-12T04:49:29.658Z,60.90
2022-12-12T04:52:05.070Z,60.80
2022-12-12T04:54:42.507Z,60.80
2022-12-12T04:57:14.750Z,61.60
2022-12-12T04:59:43.906Z,60.70
2022-12-12T05:02:21.490Z,60.70
2022-12-12T05:04:55.771Z,60.70
2022-12-12T05:07:37.908Z,60.60
2022-12-12T05:10:13.872Z,60.60
2022-12-12T05:12:45.879Z,60.60
2022-12-12T05:15:16.223Z,60.60
2022-12-12T05:17:48.816Z,60.70
2022-12-12T05:20:18.291Z,60.70
2022-12-12T05:22:47.433Z,60.70
2022-12-12T05:25:18.265Z,60.70
2022-12-12T05:27:47.526Z,60.70
2022-12-12T05:30:16.660Z,60.70
2022-12-12T05:32:45.797Z,60.50
2022-12-12T05:35:15.259Z,60.60
2022-12-12T05:37:49.930Z,60.50
2022-12-12T05:40:22.849Z,60.60
2022-12-12T05:42:51.894Z,60.50
2022-12-12T05:45:21.045Z,60.50
2022-12-12T05:47:50.130Z,60.50
2022-12-12T05:50:19.478Z,60.50
2022-12-12T05:52:49.494Z,60.60
2022-12-12T05:55:19.519Z,60.70
2022-12-12T05:57:50.309Z,60.70
2022-12-12T06:00:21.788Z,60.70
2022-12-12T06:02:50.752Z,60.70
2022-12-12T06:05:20.645Z,60.50
2022-12-12T06:07:50.059Z,60.60
2022-12-12T06:10:19.433Z,60.60
2022-12-12T06:12:50.106Z,60.50
2022-12-12T06:15:20.639Z,60.60
2022-12-12T06:17:53.466Z,60.50
2022-12-12T06:20:22.540Z,60.40
2022-12-12T06:22:53.759Z,60.50
2022-12-12T06:25:23.279Z,60.40
2022-12-12T06:27:53.878Z,60.40
2022-12-12T06:30:23.479Z,60.30
2022-12-12T06:32:52.646Z,60.20
2022-12-12T06:35:21.946Z,60.10
2022-12-12T06:37:51.152Z,60.10
2022-12-12T06:40:21.713Z,60.10
2022-12-12T06:42:51.026Z,60.10
2022-12-12T06:45:22.683Z,60.20
2022-12-12T06:47:52.142Z,60.10
2022-12-12T06:50:24.014Z,60.10
2022-12-12T06:52:53.482Z,59.90
2022-12-12T06:55:22.666Z,59.80
2022-12-12T06:57:52.210Z,59.80
2022-12-12T07:00:24.221Z,60.10
2022-12-12T07:02:53.406Z,60.20
2022-12-12T07:05:22.830Z,60.10
2022-12-12T07:07:52.168Z,60.20
2022-12-12T07:10:21.585Z,60.10
2022-12-12T07:12:55.998Z,60.00
2022-12-12T07:15:27.895Z,60.00
2022-12-12T07:17:57.247Z,59.90
2022-12-12T07:20:26.691Z,60.00
2022-12-12T07:22:55.809Z,60.00
2022-12-12T07:25:24.930Z,60.00
2022-12-12T07:27:54.343Z,59.70
2022-12-12T07:30:24.609Z,59.70
2022-12-12T07:32:55.204Z,59.80
2022-12-12T07:35:24.499Z,59.90
2022-12-12T07:37:53.988Z,59.80
2022-12-12T07:40:24.474Z,59.80
2022-12-12T07:42:53.561Z,59.80
2022-12-12T07:45:24.135Z,59.90
2022-12-12T07:47:56.481Z,59.90
2022-12-12T07:50:25.759Z,59.80
2022-12-12T07:52:55.094Z,59.80
2022-12-12T07:55:24.337Z,59.80
2022-12-12T07:57:54.198Z,59.80
2022-12-12T08:00:24.380Z,59.80
2022-12-12T08:02:54.791Z,59.80
2022-12-12T08:05:24.140Z,59.80
2022-12-12T08:07:53.047Z,59.80
2022-12-12T08:10:22.354Z,60.00
2022-12-12T08:12:51.280Z,60.20
2022-12-12T08:15:20.468Z,60.20
2022-12-12T08:17:50.190Z,60.20
2022-12-12T08:20:22.804Z,60.00
2022-12-12T08:22:52.109Z,60.00
2022-12-12T08:25:21.370Z,60.00
2022-12-12T08:27:50.414Z,60.00
2022-12-12T08:30:19.842Z,60.00
2022-12-12T08:32:49.204Z,60.00
2022-12-12T08:35:20.002Z,60.80
2022-12-12T08:37:49.228Z,60.10
2022-12-12T08:40:18.536Z,60.20
2022-12-12T08:42:47.670Z,60.10
2022-12-12T08:45:17.282Z,59.90
2022-12-12T08:47:48.155Z,59.60
2022-12-12T08:50:17.805Z,59.40
2022-12-12T08:52:48.627Z,59.50
2022-12-12T08:55:18.094Z,59.60
2022-12-12T08:57:47.400Z,59.80
2022-12-12T09:00:17.900Z,60.20
2022-12-12T09:02:47.142Z,60.60
2022-12-12T09:05:16.619Z,60.80
2022-12-12T09:07:45.840Z,60.90
2022-12-12T09:10:16.681Z,61.20
2022-12-12T09:12:45.838Z,61.30
2022-12-12T09:15:15.705Z,61.80
2022-12-12T09:17:45.441Z,62.20
2022-12-12T09:20:15.430Z,62.90
2022-12-12T09:22:45.259Z,61.90
2022-12-12T09:25:14.500Z,61.50
2022-12-12T09:27:45.180Z,61.00
2022-12-12T09:30:15.641Z,60.50
2022-12-12T09:32:45.150Z,60.20
2022-12-12T09:35:15.451Z,59.60
2022-12-12T09:37:44.970Z,59.00
2022-12-12T09:40:20.137Z,58.10
2022-12-12T09:42:52.432Z,56.90
2022-12-12T09:45:21.927Z,55.50
2022-12-12T09:47:54.263Z,54.40
2022-12-12T09:50:28.793Z,53.70
2022-12-12T09:53:02.406Z,53.20
2022-12-12T09:55:39.970Z,52.90
2022-12-12T09:58:22.026Z,52.50
2022-12-12T10:01:01.193Z,52.10
2022-12-12T10:03:44.751Z,51.90
2022-12-12T10:09:27.260Z,52.30
2022-12-12T10:12:00.023Z,52.60
2022-12-12T10:14:41.567Z,52.30
2022-12-12T10:17:16.810Z,52.50
2022-12-12T10:19:51.634Z,52.90
2022-12-12T10:22:28.792Z,53.00
2022-12-12T10:25:04.543Z,52.90
2022-12-12T10:27:33.953Z,52.40
2022-12-12T10:30:16.919Z,51.80
2022-12-12T10:33:11.712Z,50.50
2022-12-12T10:35:48.127Z,50.40
2022-12-12T10:38:35.526Z,49.70
2022-12-12T10:41:12.476Z,48.60
2022-12-12T10:43:48.908Z,48.10
2022-12-12T10:46:26.498Z,47.90
2022-12-12T10:48:55.784Z,47.90
2022-12-12T10:51:28.566Z,48.00
2022-12-12T10:53:58.046Z,48.30
2022-12-12T10:56:29.613Z,48.80
2022-12-12T10:59:01.392Z,49.30
2022-12-12T11:04:33.318Z,49.20
2022-12-12T11:07:02.814Z,48.70
2022-12-12T11:09:32.554Z,48.00
2022-12-12T11:12:04.878Z,47.70
2022-12-12T11:14:36.609Z,47.30
2022-12-12T11:17:22.813Z,46.70
2022-12-12T11:19:54.251Z,45.80
2022-12-12T11:22:24.449Z,45.40
2022-12-12T11:24:54.233Z,44.70
2022-12-12T11:27:27.920Z,43.70
2022-12-12T11:29:59.967Z,42.90
2022-12-12T11:32:32.776Z,42.50
2022-12-12T11:35:04.397Z,41.90
2022-12-12T11:37:38.883Z,41.20
2022-12-12T11:40:24.762Z,40.70
2022-12-12T11:43:09.118Z,40.20
2022-12-12T11:45:39.350Z,39.90
2022-12-12T11:51:02.665Z,39.60
2022-12-12T11:53:40.763Z,37.90
2022-12-12T11:56:35.204Z,37.00
2022-12-12T11:59:19.954Z,36.50
2022-12-12T12:01:58.063Z,36.30
2022-12-12T12:04:41.315Z,35.70
2022-12-12T12:07:28.842Z,35.50
2022-12-12T12:10:04.052Z,35.60
2022-12-12T12:12:47.738Z,35.90
2022-12-12T12:15:32.077Z,35.60
2022-12-12T12:18:28.172Z,36.20
2022-12-12T12:21:24.586Z,37.00
2022-12-12T12:24:09.175Z,37.50
2022-12-12T12:26:44.974Z,37.90
2022-12-12T12:29:45.610Z,38.20
2022-12-12T12:32:27.731Z,38.20
2022-12-12T12:35:11.699Z,38.60
2022-12-12T12:37:51.386Z,39.20
2022-12-12T12:40:42.905Z,39.60
2022-12-12T12:43:30.577Z,40.00
2022-12-12T12:46:07.663Z,40.10
2022-12-12T12:48:41.560Z,40.60
2022-12-12T12:51:15.763Z,41.10
2022-12-12T12:53:50.991Z,41.60
2022-12-12T12:56:26.795Z,41.60
2022-12-12T12:59:00.416Z,41.30
2022-12-12T13:01:36.120Z,41.00
2022-12-12T13:04:15.637Z,40.80
2022-12-12T13:06:49.831Z,40.70
2022-12-12T13:09:28.588Z,40.70
2022-12-12T13:12:04.804Z,41.40
2022-12-12T13:14:44.317Z,41.60
2022-12-12T13:17:19.329Z,42.00
2022-12-12T13:19:51.023Z,42.60
2022-12-12T13:22:29.216Z,43.00
2022-12-12T13:25:07.166Z,43.40
2022-12-12T13:27:46.015Z,44.00
2022-12-12T13:30:23.262Z,44.60
2022-12-12T13:33:12.257Z,45.10
2022-12-12T13:35:46.175Z,45.50
2022-12-12T13:38:21.689Z,45.70
2022-12-12T13:40:57.876Z,46.60
2022-12-12T13:43:43.916Z,46.10
2022-12-12T13:46:36.657Z,46.30
2022-12-12T13:49:33.734Z,46.50
2022-12-12T13:52:25.029Z,47.50
2022-12-12T13:54:57.467Z,47.20
2022-12-12T13:57:31.013Z,47.50
2022-12-12T14:00:27.658Z,47.60
2022-12-12T14:03:03.702Z,48.30
2022-12-12T14:05:36.682Z,47.90
2022-12-12T14:08:22.496Z,48.40
2022-12-12T14:11:00.473Z,48.50
2022-12-12T14:13:42.985Z,49.20
2022-12-12T14:16:27.512Z,48.70
2022-12-12T14:19:04.703Z,48.80
2022-12-12T14:21:47.880Z,49.10
2022-12-12T14:24:59.453Z,49.40
2022-12-12T14:28:02.098Z,49.60
2022-12-12T14:30:57.058Z,49.60
2022-12-12T14:33:50.123Z,49.40
2022-12-12T14:36:44.985Z,49.50
2022-12-12T14:39:26.683Z,49.70
2022-12-12T14:41:57.376Z,49.70
2022-12-12T14:44:35.626Z,49.90
2022-12-12T14:47:10.896Z,50.30
2022-12-12T14:49:41.475Z,50.30
2022-12-12T14:52:15.763Z,50.90
2022-12-12T14:54:45.201Z,50.60
2022-12-12T14:57:21.928Z,50.50
2022-12-12T14:59:51.933Z,50.40
2022-12-12T15:02:25.958Z,50.50
2022-12-12T15:05:05.187Z,50.40
2022-12-12T15:07:38.615Z,50.70
2022-12-12T15:10:24.039Z,50.90
2022-12-12T15:12:53.406Z,51.20
2022-12-12T15:15:28.641Z,51.10
2022-12-12T15:18:01.846Z,51.10
2022-12-12T15:20:33.893Z,51.20
2022-12-12T15:23:05.652Z,51.30
2022-12-12T15:25:44.784Z,51.40
2022-12-12T15:28:15.903Z,51.50
2022-12-12T15:30:48.030Z,52.20
2022-12-12T15:33:21.061Z,51.70
2022-12-12T15:35:59.652Z,51.70
2022-12-12T15:38:32.132Z,51.80
2022-12-12T15:41:05.524Z,51.90
2022-12-12T15:43:41.594Z,51.80
2022-12-12T15:46:15.203Z,52.20
2022-12-12T15:48:44.828Z,52.30
2022-12-12T15:51:24.423Z,52.10
2022-12-12T15:53:56.128Z,52.20
2022-12-12T15:56:29.209Z,52.30
2022-12-12T15:59:16.236Z,52.40
2022-12-12T16:01:45.581Z,52.60
2022-12-12T16:04:27.384Z,52.30
2022-12-12T16:07:15.640Z,52.90
2022-12-12T16:09:59.614Z,53.00
2022-12-12T16:13:01.475Z,52.90
2022-12-12T16:15:37.042Z,52.90
2022-12-12T16:18:08.841Z,53.00
2022-12-12T16:20:38.150Z,53.00
2022-12-12T16:23:20.990Z,53.00
2022-12-12T16:25:51.466Z,53.30
2022-12-12T16:28:25.784Z,53.20
2022-12-12T16:30:58.882Z,53.30
2022-12-12T16:33:31.438Z,53.30
2022-12-12T16:36:03.713Z,53.40
2022-12-12T16:38:35.027Z,53.40
2022-12-12T16:41:06.947Z,53.50
2022-12-12T16:43:36.628Z,53.50
2022-12-12T16:46:06.312Z,53.40
2022-12-12T16:48:37.577Z,53.40
2022-12-12T16:51:08.778Z,53.70
2022-12-12T16:53:39.749Z,53.90
2022-12-12T16:56:11.539Z,53.90
2022-12-12T16:58:40.879Z,54.00
2022-12-12T17:01:11.355Z,53.90
2022-12-12T17:03:40.979Z,53.90
2022-12-12T17:06:10.503Z,53.90
2022-12-12T17:08:41.425Z,54.00
2022-12-12T17:11:12.096Z,54.10
2022-12-12T17:13:45.289Z,54.10
2022-12-12T17:16:15.649Z,54.20
2022-12-12T17:18:45.203Z,54.10
2022-12-12T17:21:14.660Z,54.30
2022-12-12T17:23:46.684Z,54.40
2022-12-12T17:26:15.734Z,54.60
2022-12-12T17:28:44.881Z,54.60
2022-12-12T17:31:14.073Z,54.80
2022-12-12T17:33:50.679Z,54.80
2022-12-12T17:36:20.830Z,54.80
2022-12-12T17:38:51.688Z,54.80
2022-12-12T17:41:20.984Z,55.00
2022-12-12T17:43:55.489Z,55.10
2022-12-12T17:46:31.810Z,55.10
2022-12-12T17:49:05.891Z,55.10
2022-12-12T17:51:37.518Z,55.00
2022-12-12T17:54:08.237Z,55.70
2022-12-12T17:56:37.407Z,55.30
2022-12-12T17:59:08.651Z,55.30
2022-12-12T18:01:38.740Z,55.50
2022-12-12T18:04:08.977Z,55.60
2022-12-12T18:06:38.343Z,55.40
2022-12-12T18:09:09.054Z,55.30
2022-12-12T18:11:38.834Z,55.90
2022-12-12T18:14:09.393Z,55.40
2022-12-12T18:16:38.726Z,55.40
2022-12-12T18:19:08.100Z,55.30
2022-12-12T18:24:35.017Z,55.40
2022-12-12T18:27:07.878Z,55.40
2022-12-12T18:29:39.314Z,55.50
2022-12-12T18:32:08.893Z,55.70
2022-12-12T18:34:37.916Z,55.80
2022-12-12T18:37:07.186Z,55.80
2022-12-12T18:39:37.947Z,55.80
2022-12-12T18:42:07.482Z,55.80
2022-12-12T18:44:36.818Z,55.90
2022-12-12T18:47:05.951Z,55.80
2022-12-12T18:49:35.343Z,55.80
2022-12-12T18:52:05.177Z,55.80
2022-12-12T18:54:34.194Z,55.70
2022-12-12T18:57:04.857Z,55.60
2022-12-12T18:59:34.295Z,55.50
2022-12-12T19:02:03.945Z,55.40
2022-12-12T19:04:33.130Z,55.40
2022-12-12T19:07:02.101Z,55.60
2022-12-12T19:09:32.289Z,55.60
2022-12-12T19:12:02.742Z,55.60
2022-12-12T19:14:59.647Z,55.60
2022-12-12T19:17:26.229Z,55.80
2022-12-12T19:19:56.181Z,55.90
2022-12-12T19:22:44.427Z,55.90
2022-12-12T19:25:14.861Z,55.90
2022-12-12T19:27:45.662Z,56.00
2022-12-12T19:30:18.425Z,56.20
2022-12-12T19:32:49.184Z,56.30
2022-12-12T19:35:18.877Z,56.50
2022-12-12T19:37:48.127Z,56.20
2022-12-12T19:40:18.104Z,56.30
2022-12-12T19:42:47.255Z,56.30
2022-12-12T19:45:17.782Z,56.30
2022-12-12T19:47:47.262Z,56.30
2022-12-12T19:50:17.027Z,56.30
2022-12-12T19:52:46.867Z,56.40
2022-12-12T19:55:16.961Z,56.40
2022-12-12T19:57:46.767Z,56.20
2022-12-12T20:00:19.871Z,56.20
2022-12-12T20:02:49.235Z,56.20
2022-12-12T20:05:18.388Z,56.20
2022-12-12T20:07:47.616Z,56.30
2022-12-12T20:10:17.059Z,56.30
2022-12-12T20:12:57.927Z,56.40
2022-12-12T20:15:29.124Z,56.50
2022-12-12T20:18:00.440Z,56.60
2022-12-12T20:20:29.758Z,56.60
2022-12-12T20:22:58.942Z,56.70
2022-12-12T20:25:28.214Z,56.70
2022-12-12T20:27:57.558Z,56.70
2022-12-12T20:30:28.640Z,56.60
2022-12-12T20:32:58.227Z,56.60
2022-12-12T20:35:27.777Z,56.50
2022-12-12T20:37:58.403Z,56.50
2022-12-12T20:40:28.260Z,56.40
2022-12-12T20:43:03.180Z,56.30
2022-12-12T20:45:37.713Z,56.20
2022-12-12T20:48:07.999Z,56.40
2022-12-12T20:50:37.348Z,56.50
2022-12-12T20:53:07.176Z,56.50
2022-12-12T20:55:37.076Z,56.40
2022-12-12T20:58:06.671Z,56.50
2022-12-12T21:00:39.157Z,56.30
2022-12-12T21:03:08.411Z,56.80
2022-12-12T21:05:37.992Z,56.20
2022-12-12T21:08:07.126Z,56.30
2022-12-12T21:10:36.611Z,56.20
2022-12-12T21:13:05.782Z,56.20
2022-12-12T21:15:35.062Z,56.20
2022-12-12T21:18:05.674Z,56.20
2022-12-12T21:20:34.867Z,56.10
2022-12-12T21:23:03.967Z,56.00
2022-12-12T21:25:36.236Z,55.80
2022-12-12T21:28:05.696Z,55.90
2022-12-12T21:30:34.830Z,56.00
2022-12-12T21:33:05.308Z,56.00
2022-12-12T21:35:35.403Z,56.10
2022-12-12T21:38:05.019Z,56.10
2022-12-12T21:40:34.179Z,56.30
2022-12-12T21:43:03.427Z,56.30
2022-12-12T21:45:32.528Z,56.20
2022-12-12T21:48:01.721Z,56.10
2022-12-12T21:50:33.609Z,56.10
2022-12-12T21:53:24.010Z,56.40
2022-12-12T21:55:53.334Z,56.50
2022-12-12T21:58:22.755Z,56.60
2022-12-12T22:00:52.004Z,56.70
2022-12-12T22:03:21.148Z,56.60
2022-12-12T22:05:51.758Z,56.70
2022-12-12T22:08:21.009Z,56.60
2022-12-12T22:10:54.324Z,56.70
2022-12-12T22:13:23.690Z,56.80
2022-12-12T22:15:59.721Z,56.70
2022-12-12T22:18:29.104Z,56.60
2022-12-12T22:21:04.257Z,56.50
2022-12-12T22:23:34.740Z,56.80
2022-12-12T22:26:14.302Z,56.80
2022-12-12T22:28:43.853Z,56.90
2022-12-12T22:31:13.157Z,56.80
2022-12-12T22:33:42.369Z,56.80
2022-12-12T22:36:14.065Z,56.60
2022-12-12T22:38:43.746Z,56.70
2022-12-12T22:41:12.949Z,56.60
2022-12-12T22:43:42.296Z,56.50
2022-12-12T22:46:12.373Z,56.50
2022-12-12T22:48:41.547Z,56.40
2022-12-12T22:51:18.498Z,56.80
2022-12-12T22:53:47.905Z,56.30
2022-12-12T22:56:18.254Z,56.20
2022-12-12T22:58:47.815Z,56.30
2022-12-12T23:01:19.101Z,56.30
2022-12-12T23:03:48.683Z,56.40
2022-12-12T23:06:21.294Z,56.30
2022-12-12T23:08:51.940Z,56.20
2022-12-12T23:11:23.224Z,56.20
2022-12-12T23:13:55.695Z,56.20
2022-12-12T23:16:27.606Z,56.50
2022-12-12T23:18:56.883Z,56.20
2022-12-12T23:21:28.267Z,56.20
2022-12-12T23:23:57.467Z,56.20
2022-12-12T23:26:30.027Z,56.30
2022-12-12T23:29:00.188Z,56.40
2022-12-12T23:31:32.091Z,56.50
2022-12-12T23:34:05.136Z,56.50
2022-12-12T23:36:36.075Z,56.50
2022-12-12T23:39:07.919Z,56.50
2022-12-12T23:41:37.329Z,56.40
2022-12-12T23:44:07.506Z,56.40
2022-12-12T23:46:37.439Z,56.50
2022-12-12T23:49:09.695Z,56.50
2022-12-12T23:51:42.697Z,56.40
2022-12-12T23:54:14.396Z,56.20
2022-12-12T23:56:44.666Z,56.20
2022-12-12T23:59:17.933Z,56.10
